sensor_id;sensor_type;location;lat;lon;timestamp;P1;durP1;ratioP1;P2;durP2;ratioP2
9801;SDS011;4940;50.900;4.672;2024-01-27T00:01:09;31.80;;;29.10;;
9801;SDS011;4940;50.900;4.672;2024-01-27T00:03:36;33.70;;;29.98;;
9801;SDS011;4940;50.900;4.672;2024-01-27T00:06:03;35.37;;;31.90;;
9801;SDS011;4940;50.900;4.672;2024-01-27T00:08:31;34.85;;;31.70;;
9801;SDS011;4940;50.900;4.672;2024-01-27T00:11:00;33.83;;;30.70;;
9801;SDS011;4940;50.900;4.672;2024-01-27T00:13:27;34.40;;;31.00;;
9801;SDS011;4940;50.900;4.672;2024-01-27T00:15:55;33.17;;;30.00;;
9801;SDS011;4940;50.900;4.672;2024-01-27T00:18:22;33.10;;;30.00;;
9801;SDS011;4940;50.900;4.672;2024-01-27T00:20:49;34.57;;;31.03;;
9801;SDS011;4940;50.900;4.672;2024-01-27T00:23:17;35.00;;;31.65;;
9801;SDS011;4940;50.900;4.672;2024-01-27T00:25:44;34.17;;;30.63;;
9801;SDS011;4940;50.900;4.672;2024-01-27T00:28:13;35.27;;;31.93;;
9801;SDS011;4940;50.900;4.672;2024-01-27T00:30:40;34.60;;;31.50;;
9801;SDS011;4940;50.900;4.672;2024-01-27T00:33:08;34.83;;;31.27;;
9801;SDS011;4940;50.900;4.672;2024-01-27T00:35:35;33.30;;;30.30;;
9801;SDS011;4940;50.900;4.672;2024-01-27T00:38:02;36.93;;;33.00;;
9801;SDS011;4940;50.900;4.672;2024-01-27T00:40:30;33.27;;;30.37;;
9801;SDS011;4940;50.900;4.672;2024-01-27T00:42:57;35.17;;;31.23;;
9801;SDS011;4940;50.900;4.672;2024-01-27T00:45:26;33.33;;;30.37;;
9801;SDS011;4940;50.900;4.672;2024-01-27T00:47:55;33.53;;;30.37;;
9801;SDS011;4940;50.900;4.672;2024-01-27T00:50:22;32.93;;;29.87;;
9801;SDS011;4940;50.900;4.672;2024-01-27T00:52:50;33.10;;;30.30;;
9801;SDS011;4940;50.900;4.672;2024-01-27T00:55:17;34.00;;;30.70;;
9801;SDS011;4940;50.900;4.672;2024-01-27T00:57:45;33.33;;;30.40;;
9801;SDS011;4940;50.900;4.672;2024-01-27T01:00:13;33.90;;;30.50;;
9801;SDS011;4940;50.900;4.672;2024-01-27T01:02:41;34.97;;;31.33;;
9801;SDS011;4940;50.900;4.672;2024-01-27T01:05:09;35.20;;;31.70;;
9801;SDS011;4940;50.900;4.672;2024-01-27T01:07:36;35.50;;;32.13;;
9801;SDS011;4940;50.900;4.672;2024-01-27T01:10:04;34.17;;;31.00;;
9801;SDS011;4940;50.900;4.672;2024-01-27T01:12:32;34.28;;;30.95;;
9801;SDS011;4940;50.900;4.672;2024-01-27T01:14:59;33.93;;;30.77;;
9801;SDS011;4940;50.900;4.672;2024-01-27T01:17:27;34.03;;;30.93;;
9801;SDS011;4940;50.900;4.672;2024-01-27T01:19:56;33.80;;;30.90;;
9801;SDS011;4940;50.900;4.672;2024-01-27T01:22:23;36.97;;;33.07;;
9801;SDS011;4940;50.900;4.672;2024-01-27T01:24:51;33.77;;;30.83;;
9801;SDS011;4940;50.900;4.672;2024-01-27T01:27:18;34.97;;;31.83;;
9801;SDS011;4940;50.900;4.672;2024-01-27T01:29:46;34.43;;;31.37;;
9801;SDS011;4940;50.900;4.672;2024-01-27T01:32:13;36.13;;;33.00;;
9801;SDS011;4940;50.900;4.672;2024-01-27T01:34:41;35.37;;;32.13;;
9801;SDS011;4940;50.900;4.672;2024-01-27T01:37:10;35.27;;;32.03;;
9801;SDS011;4940;50.900;4.672;2024-01-27T01:39:38;38.43;;;34.73;;
9801;SDS011;4940;50.900;4.672;2024-01-27T01:42:06;37.70;;;33.80;;
9801;SDS011;4940;50.900;4.672;2024-01-27T01:44:33;34.93;;;31.67;;
9801;SDS011;4940;50.900;4.672;2024-01-27T01:47:01;35.90;;;32.77;;
9801;SDS011;4940;50.900;4.672;2024-01-27T01:49:28;35.47;;;31.80;;
9801;SDS011;4940;50.900;4.672;2024-01-27T01:51:55;35.57;;;31.97;;
9801;SDS011;4940;50.900;4.672;2024-01-27T01:54:25;38.50;;;34.87;;
9801;SDS011;4940;50.900;4.672;2024-01-27T01:56:53;37.10;;;33.63;;
9801;SDS011;4940;50.900;4.672;2024-01-27T01:59:21;36.87;;;33.30;;
9801;SDS011;4940;50.900;4.672;2024-01-27T02:01:48;37.83;;;33.23;;
9801;SDS011;4940;50.900;4.672;2024-01-27T02:04:15;35.10;;;31.77;;
9801;SDS011;4940;50.900;4.672;2024-01-27T02:06:43;35.47;;;32.23;;
9801;SDS011;4940;50.900;4.672;2024-01-27T02:09:10;36.13;;;32.37;;
9801;SDS011;4940;50.900;4.672;2024-01-27T02:11:39;35.67;;;32.20;;
9801;SDS011;4940;50.900;4.672;2024-01-27T02:14:06;37.03;;;32.67;;
9801;SDS011;4940;50.900;4.672;2024-01-27T02:16:34;34.83;;;31.77;;
9801;SDS011;4940;50.900;4.672;2024-01-27T02:19:01;34.70;;;31.47;;
9801;SDS011;4940;50.900;4.672;2024-01-27T02:21:29;36.40;;;32.97;;
9801;SDS011;4940;50.900;4.672;2024-01-27T02:23:56;36.27;;;32.70;;
9801;SDS011;4940;50.900;4.672;2024-01-27T02:26:26;35.50;;;32.17;;
9801;SDS011;4940;50.900;4.672;2024-01-27T02:28:53;36.17;;;33.00;;
9801;SDS011;4940;50.900;4.672;2024-01-27T02:31:20;36.93;;;33.27;;
9801;SDS011;4940;50.900;4.672;2024-01-27T02:33:48;37.00;;;33.13;;
9801;SDS011;4940;50.900;4.672;2024-01-27T02:36:15;38.37;;;32.83;;
9801;SDS011;4940;50.900;4.672;2024-01-27T02:38:43;37.23;;;33.30;;
9801;SDS011;4940;50.900;4.672;2024-01-27T02:41:10;38.47;;;34.37;;
9801;SDS011;4940;50.900;4.672;2024-01-27T02:43:39;36.10;;;32.73;;
9801;SDS011;4940;50.900;4.672;2024-01-27T02:46:11;37.47;;;33.93;;
9801;SDS011;4940;50.900;4.672;2024-01-27T02:48:40;37.70;;;33.93;;
9801;SDS011;4940;50.900;4.672;2024-01-27T02:51:08;38.50;;;34.60;;
9801;SDS011;4940;50.900;4.672;2024-01-27T02:53:35;36.20;;;32.70;;
9801;SDS011;4940;50.900;4.672;2024-01-27T02:56:05;40.10;;;35.83;;
9801;SDS011;4940;50.900;4.672;2024-01-27T02:58:33;36.43;;;32.77;;
9801;SDS011;4940;50.900;4.672;2024-01-27T03:01:02;38.17;;;34.60;;
9801;SDS011;4940;50.900;4.672;2024-01-27T03:03:30;36.77;;;33.20;;
9801;SDS011;4940;50.900;4.672;2024-01-27T03:05:57;39.30;;;35.47;;
9801;SDS011;4940;50.900;4.672;2024-01-27T03:08:25;38.27;;;34.20;;
9801;SDS011;4940;50.900;4.672;2024-01-27T03:10:52;39.93;;;34.97;;
9801;SDS011;4940;50.900;4.672;2024-01-27T03:13:20;40.50;;;36.33;;
9801;SDS011;4940;50.900;4.672;2024-01-27T03:15:47;39.40;;;35.57;;
9801;SDS011;4940;50.900;4.672;2024-01-27T03:18:16;37.80;;;34.10;;
9801;SDS011;4940;50.900;4.672;2024-01-27T03:20:44;42.03;;;37.70;;
9801;SDS011;4940;50.900;4.672;2024-01-27T03:23:11;39.47;;;35.60;;
9801;SDS011;4940;50.900;4.672;2024-01-27T03:25:38;38.10;;;34.27;;
9801;SDS011;4940;50.900;4.672;2024-01-27T03:28:06;38.47;;;34.50;;
9801;SDS011;4940;50.900;4.672;2024-01-27T03:30:32;38.70;;;34.77;;
9801;SDS011;4940;50.900;4.672;2024-01-27T03:33:00;37.30;;;33.47;;
9801;SDS011;4940;50.900;4.672;2024-01-27T03:35:28;57.53;;;34.60;;
9801;SDS011;4940;50.900;4.672;2024-01-27T03:37:56;38.67;;;33.73;;
9801;SDS011;4940;50.900;4.672;2024-01-27T03:40:23;37.77;;;34.20;;
9801;SDS011;4940;50.900;4.672;2024-01-27T03:42:51;37.63;;;34.13;;
9801;SDS011;4940;50.900;4.672;2024-01-27T03:45:18;41.20;;;36.33;;
9801;SDS011;4940;50.900;4.672;2024-01-27T03:47:46;40.80;;;36.67;;
9801;SDS011;4940;50.900;4.672;2024-01-27T03:50:13;41.50;;;37.40;;
9801;SDS011;4940;50.900;4.672;2024-01-27T03:52:42;38.10;;;34.33;;
9801;SDS011;4940;50.900;4.672;2024-01-27T03:55:09;40.70;;;36.73;;
9801;SDS011;4940;50.900;4.672;2024-01-27T03:57:37;40.47;;;36.67;;
9801;SDS011;4940;50.900;4.672;2024-01-27T04:00:05;40.90;;;36.83;;
9801;SDS011;4940;50.900;4.672;2024-01-27T04:02:33;41.03;;;36.73;;
9801;SDS011;4940;50.900;4.672;2024-01-27T04:05:00;39.93;;;36.33;;
9801;SDS011;4940;50.900;4.672;2024-01-27T04:07:27;39.17;;;35.23;;
9801;SDS011;4940;50.900;4.672;2024-01-27T04:09:56;41.17;;;35.70;;
9801;SDS011;4940;50.900;4.672;2024-01-27T04:12:23;39.10;;;35.37;;
9801;SDS011;4940;50.900;4.672;2024-01-27T04:14:51;37.53;;;34.07;;
9801;SDS011;4940;50.900;4.672;2024-01-27T04:17:18;42.40;;;35.43;;
9801;SDS011;4940;50.900;4.672;2024-01-27T04:19:46;42.83;;;35.77;;
9801;SDS011;4940;50.900;4.672;2024-01-27T04:22:13;41.00;;;36.87;;
9801;SDS011;4940;50.900;4.672;2024-01-27T04:24:41;38.43;;;34.53;;
9801;SDS011;4940;50.900;4.672;2024-01-27T04:27:10;38.27;;;34.30;;
9801;SDS011;4940;50.900;4.672;2024-01-27T04:29:37;37.57;;;33.87;;
9801;SDS011;4940;50.900;4.672;2024-01-27T04:32:04;39.97;;;34.60;;
9801;SDS011;4940;50.900;4.672;2024-01-27T04:34:32;37.07;;;33.43;;
9801;SDS011;4940;50.900;4.672;2024-01-27T04:36:59;38.83;;;35.07;;
9801;SDS011;4940;50.900;4.672;2024-01-27T04:39:27;37.90;;;34.47;;
9801;SDS011;4940;50.900;4.672;2024-01-27T04:41:55;41.23;;;37.53;;
9801;SDS011;4940;50.900;4.672;2024-01-27T04:44:23;40.57;;;36.57;;
9801;SDS011;4940;50.900;4.672;2024-01-27T04:46:51;41.53;;;36.20;;
9801;SDS011;4940;50.900;4.672;2024-01-27T04:49:18;40.07;;;36.37;;
9801;SDS011;4940;50.900;4.672;2024-01-27T04:51:46;39.70;;;35.90;;
9801;SDS011;4940;50.900;4.672;2024-01-27T04:54:13;39.83;;;35.90;;
9801;SDS011;4940;50.900;4.672;2024-01-27T04:56:40;40.80;;;36.87;;
9801;SDS011;4940;50.900;4.672;2024-01-27T04:59:08;42.10;;;37.23;;
9801;SDS011;4940;50.900;4.672;2024-01-27T05:01:36;39.80;;;36.03;;
9801;SDS011;4940;50.900;4.672;2024-01-27T05:04:04;41.20;;;37.13;;
9801;SDS011;4940;50.900;4.672;2024-01-27T05:06:31;39.70;;;35.53;;
9801;SDS011;4940;50.900;4.672;2024-01-27T05:08:59;41.87;;;37.40;;
9801;SDS011;4940;50.900;4.672;2024-01-27T05:13:54;50.40;;;37.93;;
9801;SDS011;4940;50.900;4.672;2024-01-27T05:16:21;40.53;;;36.77;;
9801;SDS011;4940;50.900;4.672;2024-01-27T05:18:50;41.73;;;37.50;;
9801;SDS011;4940;50.900;4.672;2024-01-27T05:21:18;39.43;;;35.40;;
9801;SDS011;4940;50.900;4.672;2024-01-27T05:23:45;42.63;;;37.70;;
9801;SDS011;4940;50.900;4.672;2024-01-27T05:26:12;40.33;;;36.57;;
9801;SDS011;4940;50.900;4.672;2024-01-27T05:28:40;41.43;;;37.07;;
9801;SDS011;4940;50.900;4.672;2024-01-27T05:31:07;40.47;;;36.17;;
9801;SDS011;4940;50.900;4.672;2024-01-27T05:33:35;42.63;;;38.13;;
9801;SDS011;4940;50.900;4.672;2024-01-27T05:36:04;40.23;;;35.80;;
9801;SDS011;4940;50.900;4.672;2024-01-27T05:38:31;43.20;;;39.07;;
9801;SDS011;4940;50.900;4.672;2024-01-27T05:41:00;41.87;;;38.10;;
9801;SDS011;4940;50.900;4.672;2024-01-27T05:43:28;41.90;;;37.83;;
9801;SDS011;4940;50.900;4.672;2024-01-27T05:45:55;45.40;;;40.07;;
9801;SDS011;4940;50.900;4.672;2024-01-27T05:48:22;41.00;;;36.97;;
9801;SDS011;4940;50.900;4.672;2024-01-27T05:50:56;42.73;;;38.50;;
9801;SDS011;4940;50.900;4.672;2024-01-27T05:53:25;39.33;;;35.53;;
9801;SDS011;4940;50.900;4.672;2024-01-27T05:55:53;43.77;;;39.63;;
9801;SDS011;4940;50.900;4.672;2024-01-27T05:58:20;41.03;;;36.73;;
9801;SDS011;4940;50.900;4.672;2024-01-27T06:00:48;43.37;;;38.77;;
9801;SDS011;4940;50.900;4.672;2024-01-27T06:03:15;41.43;;;37.03;;
9801;SDS011;4940;50.900;4.672;2024-01-27T06:05:43;43.50;;;38.47;;
9801;SDS011;4940;50.900;4.672;2024-01-27T06:08:10;40.60;;;36.43;;
9801;SDS011;4940;50.900;4.672;2024-01-27T06:10:39;42.07;;;37.37;;
9801;SDS011;4940;50.900;4.672;2024-01-27T06:13:06;43.03;;;39.23;;
9801;SDS011;4940;50.900;4.672;2024-01-27T06:15:34;47.33;;;43.27;;
9801;SDS011;4940;50.900;4.672;2024-01-27T06:18:01;44.73;;;40.73;;
9801;SDS011;4940;50.900;4.672;2024-01-27T06:20:29;45.30;;;41.17;;
9801;SDS011;4940;50.900;4.672;2024-01-27T06:22:56;47.90;;;43.73;;
9801;SDS011;4940;50.900;4.672;2024-01-27T06:25:24;45.77;;;42.10;;
9801;SDS011;4940;50.900;4.672;2024-01-27T06:27:52;44.23;;;40.37;;
9801;SDS011;4940;50.900;4.672;2024-01-27T06:30:20;41.53;;;37.20;;
9801;SDS011;4940;50.900;4.672;2024-01-27T06:32:47;43.40;;;39.10;;
9801;SDS011;4940;50.900;4.672;2024-01-27T06:35:15;40.93;;;36.97;;
9801;SDS011;4940;50.900;4.672;2024-01-27T06:37:42;40.50;;;36.90;;
9801;SDS011;4940;50.900;4.672;2024-01-27T06:40:10;42.57;;;38.73;;
9801;SDS011;4940;50.900;4.672;2024-01-27T06:42:37;38.47;;;34.83;;
9801;SDS011;4940;50.900;4.672;2024-01-27T06:45:06;38.27;;;34.57;;
9801;SDS011;4940;50.900;4.672;2024-01-27T06:47:34;39.37;;;35.00;;
9801;SDS011;4940;50.900;4.672;2024-01-27T06:50:02;37.77;;;34.40;;
9801;SDS011;4940;50.900;4.672;2024-01-27T06:52:29;39.43;;;35.63;;
9801;SDS011;4940;50.900;4.672;2024-01-27T06:54:57;40.20;;;36.13;;
9801;SDS011;4940;50.900;4.672;2024-01-27T06:57:24;38.77;;;35.33;;
9801;SDS011;4940;50.900;4.672;2024-01-27T06:59:51;40.87;;;36.60;;
9801;SDS011;4940;50.900;4.672;2024-01-27T07:02:23;38.97;;;34.90;;
9801;SDS011;4940;50.900;4.672;2024-01-27T07:04:51;39.93;;;35.83;;
9801;SDS011;4940;50.900;4.672;2024-01-27T07:07:19;41.80;;;37.80;;
9801;SDS011;4940;50.900;4.672;2024-01-27T07:09:50;39.23;;;35.93;;
9801;SDS011;4940;50.900;4.672;2024-01-27T07:12:17;38.43;;;34.87;;
9801;SDS011;4940;50.900;4.672;2024-01-27T07:14:45;42.00;;;35.83;;
9801;SDS011;4940;50.900;4.672;2024-01-27T07:17:12;37.40;;;33.72;;
9801;SDS011;4940;50.900;4.672;2024-01-27T07:19:41;41.30;;;37.37;;
9801;SDS011;4940;50.900;4.672;2024-01-27T07:22:08;38.93;;;35.40;;
9801;SDS011;4940;50.900;4.672;2024-01-27T07:24:36;39.63;;;35.87;;
9801;SDS011;4940;50.900;4.672;2024-01-27T07:27:04;38.33;;;34.43;;
9801;SDS011;4940;50.900;4.672;2024-01-27T07:29:31;38.43;;;34.63;;
9801;SDS011;4940;50.900;4.672;2024-01-27T07:31:59;40.03;;;36.10;;
9801;SDS011;4940;50.900;4.672;2024-01-27T07:34:27;40.13;;;36.10;;
9801;SDS011;4940;50.900;4.672;2024-01-27T07:36:55;40.50;;;36.37;;
9801;SDS011;4940;50.900;4.672;2024-01-27T07:39:23;41.93;;;35.20;;
9801;SDS011;4940;50.900;4.672;2024-01-27T07:41:54;39.70;;;35.67;;
9801;SDS011;4940;50.900;4.672;2024-01-27T07:44:21;37.10;;;33.43;;
9801;SDS011;4940;50.900;4.672;2024-01-27T07:46:49;41.57;;;33.87;;
9801;SDS011;4940;50.900;4.672;2024-01-27T07:49:17;42.17;;;33.53;;
9801;SDS011;4940;50.900;4.672;2024-01-27T07:51:44;38.53;;;32.67;;
9801;SDS011;4940;50.900;4.672;2024-01-27T07:54:13;40.17;;;34.60;;
9801;SDS011;4940;50.900;4.672;2024-01-27T07:56:41;42.17;;;32.73;;
9801;SDS011;4940;50.900;4.672;2024-01-27T07:59:13;39.57;;;34.53;;
9801;SDS011;4940;50.900;4.672;2024-01-27T08:01:43;40.47;;;35.03;;
9801;SDS011;4940;50.900;4.672;2024-01-27T08:07:09;39.53;;;34.33;;
9801;SDS011;4940;50.900;4.672;2024-01-27T08:09:45;43.37;;;34.33;;
9801;SDS011;4940;50.900;4.672;2024-01-27T08:12:12;41.23;;;35.67;;
9801;SDS011;4940;50.900;4.672;2024-01-27T08:14:40;38.67;;;34.77;;
9801;SDS011;4940;50.900;4.672;2024-01-27T08:17:11;40.23;;;35.67;;
9801;SDS011;4940;50.900;4.672;2024-01-27T08:19:38;41.00;;;35.27;;
9801;SDS011;4940;50.900;4.672;2024-01-27T08:22:34;38.70;;;34.60;;
9801;SDS011;4940;50.900;4.672;2024-01-27T08:25:02;38.37;;;34.33;;
9801;SDS011;4940;50.900;4.672;2024-01-27T08:27:30;39.37;;;34.33;;
9801;SDS011;4940;50.900;4.672;2024-01-27T08:30:07;39.93;;;35.40;;
9801;SDS011;4940;50.900;4.672;2024-01-27T08:32:35;38.47;;;34.50;;
9801;SDS011;4940;50.900;4.672;2024-01-27T08:35:02;39.38;;;34.33;;
9801;SDS011;4940;50.900;4.672;2024-01-27T08:37:30;39.55;;;33.92;;
9801;SDS011;4940;50.900;4.672;2024-01-27T08:40:06;37.88;;;34.08;;
9801;SDS011;4940;50.900;4.672;2024-01-27T08:42:37;33.53;;;30.20;;
9801;SDS011;4940;50.900;4.672;2024-01-27T08:45:05;34.78;;;31.10;;
9801;SDS011;4940;50.900;4.672;2024-01-27T08:47:37;33.08;;;29.73;;
9801;SDS011;4940;50.900;4.672;2024-01-27T08:50:07;33.42;;;29.85;;
9801;SDS011;4940;50.900;4.672;2024-01-27T08:52:35;32.47;;;28.90;;
9801;SDS011;4940;50.900;4.672;2024-01-27T08:55:05;35.53;;;31.95;;
9801;SDS011;4940;50.900;4.672;2024-01-27T08:57:33;32.35;;;29.15;;
9801;SDS011;4940;50.900;4.672;2024-01-27T09:00:15;31.23;;;28.00;;
9801;SDS011;4940;50.900;4.672;2024-01-27T09:02:43;32.55;;;29.05;;
9801;SDS011;4940;50.900;4.672;2024-01-27T09:05:11;27.38;;;24.95;;
9801;SDS011;4940;50.900;4.672;2024-01-27T09:07:58;24.10;;;21.95;;
9801;SDS011;4940;50.900;4.672;2024-01-27T09:13:19;21.38;;;17.75;;
9801;SDS011;4940;50.900;4.672;2024-01-27T09:15:49;15.18;;;13.68;;
9801;SDS011;4940;50.900;4.672;2024-01-27T09:18:31;14.38;;;12.65;;
9801;SDS011;4940;50.900;4.672;2024-01-27T09:21:01;12.70;;;9.95;;
9801;SDS011;4940;50.900;4.672;2024-01-27T09:23:29;11.70;;;8.32;;
9801;SDS011;4940;50.900;4.672;2024-01-27T09:26:01;6.63;;;5.05;;
9801;SDS011;4940;50.900;4.672;2024-01-27T09:28:42;7.32;;;3.83;;
9801;SDS011;4940;50.900;4.672;2024-01-27T09:31:18;7.93;;;4.18;;
9801;SDS011;4940;50.900;4.672;2024-01-27T09:34:00;6.93;;;3.63;;
9801;SDS011;4940;50.900;4.672;2024-01-27T09:36:27;8.95;;;3.60;;
9801;SDS011;4940;50.900;4.672;2024-01-27T09:39:02;9.88;;;3.53;;
9801;SDS011;4940;50.900;4.672;2024-01-27T09:44:24;9.18;;;3.20;;
9801;SDS011;4940;50.900;4.672;2024-01-27T09:46:58;7.20;;;3.17;;
9801;SDS011;4940;50.900;4.672;2024-01-27T09:49:37;8.75;;;3.53;;
9801;SDS011;4940;50.900;4.672;2024-01-27T10:02:47;8.48;;;2.92;;
9801;SDS011;4940;50.900;4.672;2024-01-27T10:05:15;7.85;;;3.33;;
9801;SDS011;4940;50.900;4.672;2024-01-27T10:07:43;7.70;;;2.45;;
9801;SDS011;4940;50.900;4.672;2024-01-27T10:10:10;8.45;;;2.83;;
9801;SDS011;4940;50.900;4.672;2024-01-27T10:12:39;6.40;;;2.50;;
9801;SDS011;4940;50.900;4.672;2024-01-27T10:15:17;8.32;;;3.33;;
9801;SDS011;4940;50.900;4.672;2024-01-27T10:17:46;7.38;;;2.53;;
9801;SDS011;4940;50.900;4.672;2024-01-27T10:20:14;8.68;;;3.13;;
9801;SDS011;4940;50.900;4.672;2024-01-27T10:22:43;7.63;;;3.00;;
9801;SDS011;4940;50.900;4.672;2024-01-27T10:25:12;7.75;;;2.80;;
9801;SDS011;4940;50.900;4.672;2024-01-27T10:27:39;10.02;;;3.20;;
9801;SDS011;4940;50.900;4.672;2024-01-27T10:30:14;7.63;;;2.78;;
9801;SDS011;4940;50.900;4.672;2024-01-27T10:32:43;8.43;;;3.50;;
9801;SDS011;4940;50.900;4.672;2024-01-27T10:35:11;11.30;;;4.27;;
9801;SDS011;4940;50.900;4.672;2024-01-27T10:37:39;7.15;;;3.67;;
9801;SDS011;4940;50.900;4.672;2024-01-27T10:40:07;10.90;;;4.10;;
9801;SDS011;4940;50.900;4.672;2024-01-27T10:42:35;8.85;;;3.25;;
9801;SDS011;4940;50.900;4.672;2024-01-27T10:45:03;5.95;;;3.28;;
9801;SDS011;4940;50.900;4.672;2024-01-27T10:47:32;9.55;;;3.53;;
9801;SDS011;4940;50.900;4.672;2024-01-27T10:50:00;6.57;;;4.05;;
9801;SDS011;4940;50.900;4.672;2024-01-27T10:52:30;7.20;;;3.10;;
9801;SDS011;4940;50.900;4.672;2024-01-27T10:54:59;5.30;;;3.08;;
9801;SDS011;4940;50.900;4.672;2024-01-27T10:57:28;5.75;;;3.00;;
9801;SDS011;4940;50.900;4.672;2024-01-27T10:59:57;8.10;;;2.80;;
9801;SDS011;4940;50.900;4.672;2024-01-27T11:02:24;6.22;;;2.97;;
9801;SDS011;4940;50.900;4.672;2024-01-27T11:04:52;7.38;;;3.08;;
9801;SDS011;4940;50.900;4.672;2024-01-27T11:07:20;7.40;;;3.65;;
9801;SDS011;4940;50.900;4.672;2024-01-27T11:09:50;8.18;;;3.20;;
9801;SDS011;4940;50.900;4.672;2024-01-27T11:12:17;8.88;;;3.05;;
9801;SDS011;4940;50.900;4.672;2024-01-27T11:14:46;2.65;;;2.05;;
9801;SDS011;4940;50.900;4.672;2024-01-27T11:17:13;6.72;;;2.20;;
9801;SDS011;4940;50.900;4.672;2024-01-27T11:19:41;3.40;;;2.33;;
9801;SDS011;4940;50.900;4.672;2024-01-27T11:22:16;11.43;;;2.78;;
9801;SDS011;4940;50.900;4.672;2024-01-27T11:24:52;5.38;;;2.50;;
9801;SDS011;4940;50.900;4.672;2024-01-27T11:27:26;3.53;;;2.20;;
9801;SDS011;4940;50.900;4.672;2024-01-27T11:29:55;5.40;;;2.75;;
9801;SDS011;4940;50.900;4.672;2024-01-27T11:32:22;7.82;;;2.30;;
9801;SDS011;4940;50.900;4.672;2024-01-27T11:34:51;4.22;;;2.05;;
9801;SDS011;4940;50.900;4.672;2024-01-27T11:37:19;6.50;;;1.80;;
9801;SDS011;4940;50.900;4.672;2024-01-27T11:39:50;9.05;;;1.95;;
9801;SDS011;4940;50.900;4.672;2024-01-27T11:42:19;7.70;;;2.13;;
9801;SDS011;4940;50.900;4.672;2024-01-27T11:44:46;6.45;;;2.15;;
9801;SDS011;4940;50.900;4.672;2024-01-27T11:47:14;4.97;;;1.80;;
9801;SDS011;4940;50.900;4.672;2024-01-27T11:49:42;3.65;;;1.83;;
9801;SDS011;4940;50.900;4.672;2024-01-27T11:52:10;3.58;;;1.80;;
9801;SDS011;4940;50.900;4.672;2024-01-27T11:54:37;6.70;;;2.13;;
9801;SDS011;4940;50.900;4.672;2024-01-27T11:57:05;6.53;;;2.00;;
9801;SDS011;4940;50.900;4.672;2024-01-27T11:59:34;5.63;;;1.85;;
9801;SDS011;4940;50.900;4.672;2024-01-27T12:02:01;2.75;;;1.63;;
9801;SDS011;4940;50.900;4.672;2024-01-27T12:04:29;9.02;;;2.10;;
9801;SDS011;4940;50.900;4.672;2024-01-27T12:06:57;5.45;;;1.92;;
9801;SDS011;4940;50.900;4.672;2024-01-27T12:09:25;3.60;;;1.73;;
9801;SDS011;4940;50.900;4.672;2024-01-27T12:11:52;4.97;;;1.70;;
9801;SDS011;4940;50.900;4.672;2024-01-27T12:14:20;3.00;;;1.80;;
9801;SDS011;4940;50.900;4.672;2024-01-27T12:16:49;4.57;;;1.60;;
9801;SDS011;4940;50.900;4.672;2024-01-27T12:19:18;6.55;;;1.63;;
9801;SDS011;4940;50.900;4.672;2024-01-27T12:21:49;5.68;;;2.08;;
9801;SDS011;4940;50.900;4.672;2024-01-27T12:24:16;3.60;;;1.80;;
9801;SDS011;4940;50.900;4.672;2024-01-27T12:26:44;4.63;;;2.42;;
9801;SDS011;4940;50.900;4.672;2024-01-27T12:29:12;4.43;;;2.00;;
9801;SDS011;4940;50.900;4.672;2024-01-27T12:31:39;5.15;;;2.10;;
9801;SDS011;4940;50.900;4.672;2024-01-27T12:34:08;4.68;;;1.88;;
9801;SDS011;4940;50.900;4.672;2024-01-27T12:36:40;4.20;;;1.63;;
9801;SDS011;4940;50.900;4.672;2024-01-27T12:39:08;5.93;;;1.83;;
9801;SDS011;4940;50.900;4.672;2024-01-27T12:41:36;10.52;;;1.75;;
9801;SDS011;4940;50.900;4.672;2024-01-27T12:44:03;5.90;;;1.75;;
9801;SDS011;4940;50.900;4.672;2024-01-27T12:46:31;4.45;;;1.80;;
9801;SDS011;4940;50.900;4.672;2024-01-27T12:48:59;6.25;;;1.90;;
9801;SDS011;4940;50.900;4.672;2024-01-27T12:51:27;5.07;;;1.95;;
9801;SDS011;4940;50.900;4.672;2024-01-27T12:53:54;5.68;;;1.70;;
9801;SDS011;4940;50.900;4.672;2024-01-27T12:56:22;3.80;;;1.92;;
9801;SDS011;4940;50.900;4.672;2024-01-27T12:58:49;7.90;;;1.88;;
9801;SDS011;4940;50.900;4.672;2024-01-27T13:01:17;5.65;;;1.50;;
9801;SDS011;4940;50.900;4.672;2024-01-27T13:03:44;8.00;;;1.70;;
9801;SDS011;4940;50.900;4.672;2024-01-27T13:06:12;5.50;;;1.58;;
9801;SDS011;4940;50.900;4.672;2024-01-27T13:08:41;1.95;;;1.52;;
9801;SDS011;4940;50.900;4.672;2024-01-27T13:11:08;2.42;;;1.20;;
9801;SDS011;4940;50.900;4.672;2024-01-27T13:13:38;6.57;;;1.80;;
9801;SDS011;4940;50.900;4.672;2024-01-27T13:16:05;2.33;;;1.20;;
9801;SDS011;4940;50.900;4.672;2024-01-27T13:18:33;5.78;;;1.50;;
9801;SDS011;4940;50.900;4.672;2024-01-27T13:21:00;2.47;;;1.08;;
9801;SDS011;4940;50.900;4.672;2024-01-27T13:23:29;7.57;;;1.55;;
9801;SDS011;4940;50.900;4.672;2024-01-27T13:25:58;3.45;;;1.40;;
9801;SDS011;4940;50.900;4.672;2024-01-27T13:28:25;3.95;;;1.23;;
9801;SDS011;4940;50.900;4.672;2024-01-27T13:30:53;2.80;;;1.42;;
9801;SDS011;4940;50.900;4.672;2024-01-27T13:33:20;4.60;;;1.25;;
9801;SDS011;4940;50.900;4.672;2024-01-27T13:35:48;3.50;;;1.58;;
9801;SDS011;4940;50.900;4.672;2024-01-27T13:38:15;4.68;;;1.33;;
9801;SDS011;4940;50.900;4.672;2024-01-27T13:40:45;6.82;;;1.40;;
9801;SDS011;4940;50.900;4.672;2024-01-27T13:43:15;5.63;;;1.17;;
9801;SDS011;4940;50.900;4.672;2024-01-27T13:45:42;2.65;;;1.20;;
9801;SDS011;4940;50.900;4.672;2024-01-27T13:48:09;6.55;;;1.52;;
9801;SDS011;4940;50.900;4.672;2024-01-27T13:50:37;6.38;;;1.30;;
9801;SDS011;4940;50.900;4.672;2024-01-27T13:53:04;6.82;;;1.15;;
9801;SDS011;4940;50.900;4.672;2024-01-27T13:55:32;4.60;;;1.67;;
9801;SDS011;4940;50.900;4.672;2024-01-27T13:57:59;7.22;;;1.45;;
9801;SDS011;4940;50.900;4.672;2024-01-27T14:00:28;4.82;;;1.17;;
9801;SDS011;4940;50.900;4.672;2024-01-27T14:02:56;6.43;;;1.40;;
9801;SDS011;4940;50.900;4.672;2024-01-27T14:05:23;3.20;;;0.88;;
9801;SDS011;4940;50.900;4.672;2024-01-27T14:07:51;4.53;;;1.40;;
9801;SDS011;4940;50.900;4.672;2024-01-27T14:10:18;4.15;;;1.60;;
9801;SDS011;4940;50.900;4.672;2024-01-27T14:12:45;5.90;;;1.50;;
9801;SDS011;4940;50.900;4.672;2024-01-27T14:15:13;5.07;;;1.50;;
9801;SDS011;4940;50.900;4.672;2024-01-27T14:17:44;4.10;;;1.60;;
9801;SDS011;4940;50.900;4.672;2024-01-27T14:20:11;3.67;;;1.50;;
9801;SDS011;4940;50.900;4.672;2024-01-27T14:22:39;4.20;;;1.73;;
9801;SDS011;4940;50.900;4.672;2024-01-27T14:25:06;5.05;;;1.75;;
9801;SDS011;4940;50.900;4.672;2024-01-27T14:27:35;7.53;;;1.80;;
9801;SDS011;4940;50.900;4.672;2024-01-27T14:30:02;7.93;;;1.67;;
9801;SDS011;4940;50.900;4.672;2024-01-27T14:32:30;5.18;;;1.73;;
9801;SDS011;4940;50.900;4.672;2024-01-27T14:34:59;3.65;;;1.40;;
9801;SDS011;4940;50.900;4.672;2024-01-27T14:37:26;4.55;;;1.40;;
9801;SDS011;4940;50.900;4.672;2024-01-27T14:39:53;4.55;;;1.83;;
9801;SDS011;4940;50.900;4.672;2024-01-27T14:42:21;4.18;;;1.02;;
9801;SDS011;4940;50.900;4.672;2024-01-27T14:44:48;4.53;;;1.27;;
9801;SDS011;4940;50.900;4.672;2024-01-27T14:47:18;1.67;;;0.88;;
9801;SDS011;4940;50.900;4.672;2024-01-27T14:49:46;5.38;;;1.48;;
9801;SDS011;4940;50.900;4.672;2024-01-27T14:52:14;5.88;;;1.27;;
9801;SDS011;4940;50.900;4.672;2024-01-27T14:54:42;3.72;;;1.30;;
9801;SDS011;4940;50.900;4.672;2024-01-27T14:57:09;5.05;;;1.50;;
9801;SDS011;4940;50.900;4.672;2024-01-27T14:59:37;5.57;;;1.20;;
9801;SDS011;4940;50.900;4.672;2024-01-27T15:02:04;6.65;;;1.58;;
9801;SDS011;4940;50.900;4.672;2024-01-27T15:04:33;3.42;;;1.35;;
9801;SDS011;4940;50.900;4.672;2024-01-27T15:07:00;2.28;;;1.00;;
9801;SDS011;4940;50.900;4.672;2024-01-27T15:09:29;4.75;;;1.33;;
9801;SDS011;4940;50.900;4.672;2024-01-27T15:11:56;6.35;;;1.42;;
9801;SDS011;4940;50.900;4.672;2024-01-27T15:14:24;4.75;;;1.30;;
9801;SDS011;4940;50.900;4.672;2024-01-27T15:16:51;4.68;;;1.20;;
9801;SDS011;4940;50.900;4.672;2024-01-27T15:19:19;1.48;;;0.88;;
9801;SDS011;4940;50.900;4.672;2024-01-27T15:21:46;3.72;;;1.20;;
9801;SDS011;4940;50.900;4.672;2024-01-27T15:24:14;5.75;;;1.55;;
9801;SDS011;4940;50.900;4.672;2024-01-27T15:26:42;8.77;;;2.88;;